Airfield :
LOGIN :

Register | Disclaimer

   EN    FR    IT 

 










Legend :    VFR   Marginal VFR   IFR   Intensive IFR   Very Intensive IFR
Visi :
Ceiling :
>= 8 km
>= 3000ft
5 to 8 km
1000 to 3000 ft
1500m to 5 km
500 to 1000 ft
800 to 1500m
200 to 500 ft
< 800m
< 200 ft
Symbols :   Thunderstorms  Fog  Heavy snow  Heavy precipitations  Wind > 20 kt
SIGMETs :     Misc.  Thunderstorms  Icing  Turbulence  Mountain Waves  Volcanic Ashes






- Airport Elevation : 76 ft
- IATA code : KID


ESMK - Kristianstad

CURRENT METAR :
  • 162320Z AUTO 00000KT 9999 SCT009/// BKN066/// OVC078/// 13/13 Q1010

EXPIRED METARs :
  • 162250Z AUTO 07003KT 9999 FEW078/// SCT130/// 12/12 Q1010
  • 162220Z AUTO 07003KT 9999 SCT094/// BKN110/// 12/12 Q1010
  • 162150Z AUTO 08004KT 9999 FEW070/// SCT110/// 13/13 Q1010
  • 162120Z AUTO 10003KT 9999 BKN082/// 13/13 Q1010
  • 162050Z AUTO 07004KT 9999 SCT074/// BKN098/// BKN150/// 13/13 Q1010
  • 162020Z AUTO 08005KT 040V100 9999 OVC076/// 14/14 Q1010 REDZ
  • 161950Z AUTO 10005KT 9999 OVC096/// 14/14 Q1010
  • 161920Z AUTO 11004KT 9999 OVC100/// 14/14 Q1010
  • 161850Z AUTO 11005KT 090V150 9999 BKN110/// 15/14 Q1010

Expired Forecast.



MET'MAP, your aeronautical weather chart ! - Copyright ORBIFLY December 2007 - Disclaimer

ORBIFLY MET'MAP TEAM :

Programming & Development : Alexandra Zaïnal
Original concept : Baudouin d'Aumeries
Technical & hardware support : Manuel Goepfert
Assistance : Marc-Olivier Méhu




SOURCES & CREDITS :

   NOAA